Acle, United Kingdom
Current Conditions -  °F | °C
As of 11:20 AM on Sunday 23 Nov 2014 (Local Time) from EGSD Reporting Station
Overcast Overcast  
Wind Chill: 10°   Ceiling: 400
Heat Index: 10°   Visibility: 4mi
Dew Point:   Wind: 12mph
Humidity: 94%   Direction: 340°NNW
Pressure: 29.94"   Gusts: NA
Location:  52.64°N, 1.55°E
Report Text: EGSD 231120Z 34010KT 6000 OVC004 10/09 Q1014
Loading
Personal Weather Stations






























Interactive Weather Map New forecast layout! Learn more

10-Day Weather Forecast

Advertisements
Track Severe Weather on mobile